Time;durP1;ratioP1;P1;durP2;ratioP2;P2;SDS_P1;SDS_P2;PMS_P1;PMS_P2;Temp;Humidity;BMP_temperature;BMP_pressure;BME280_temperature;BME280_humidity;BME280_pressure;Samples;Min_cycle;Max_cycle;Signal;HPM_P1;HPM_P2
2021/04/05 00:00:59;;;;;;;9.40;6.03;;;4.60;99.90;;;;;;5096663;28;20282;-62
2021/04/05 00:03:26;;;;;;;12.40;6.57;;;4.60;99.90;;;;;;5096190;28;20696;-62
2021/04/05 00:05:53;;;;;;;11.67;7.10;;;4.60;99.90;;;;;;5096127;28;20736;-63
2021/04/05 00:08:21;;;;;;;13.23;7.07;;;4.60;99.90;;;;;;5096275;28;20196;-59
2021/04/05 00:10:50;;;;;;;11.70;7.30;;;4.60;99.90;;;;;;5096367;28;20226;-59
2021/04/05 00:13:21;;;;;;;10.10;6.90;;;4.60;99.90;;;;;;5096866;28;20231;-62
2021/04/05 00:15:48;;;;;;;10.57;6.60;;;4.50;99.90;;;;;;5088610;28;20223;-64
2021/04/05 00:18:15;;;;;;;12.73;6.53;;;4.50;99.90;;;;;;5083705;28;20207;-62
2021/04/05 00:20:47;;;;;;;11.50;7.10;;;4.50;99.90;;;;;;5085196;28;20299;-62
2021/04/05 00:23:14;;;;;;;10.43;6.63;;;4.50;99.90;;;;;;5076522;28;20184;-62
2021/04/05 00:25:42;;;;;;;12.80;7.27;;;4.50;99.90;;;;;;5081046;28;20211;-63
2021/04/05 00:28:10;;;;;;;12.77;7.07;;;4.50;99.90;;;;;;5091387;28;20193;-63
2021/04/05 00:30:38;;;;;;;11.37;7.13;;;4.40;99.90;;;;;;5098022;28;20317;-63
2021/04/05 00:33:05;;;;;;;10.53;7.23;;;4.40;99.90;;;;;;5098435;28;20201;-63
2021/04/05 00:35:34;;;;;;;11.60;6.90;;;4.40;99.90;;;;;;5089489;28;20271;-63
2021/04/05 00:38:03;;;;;;;11.43;7.07;;;4.30;99.90;;;;;;5076342;28;20204;-62
2021/04/05 00:40:32;;;;;;;11.17;7.00;;;4.30;99.90;;;;;;5082585;28;20694;-63
2021/04/05 00:43:01;;;;;;;11.53;6.63;;;4.40;99.90;;;;;;5085180;28;20197;-63
2021/04/05 00:45:29;;;;;;;13.07;7.33;;;4.40;99.90;;;;;;5079495;28;20277;-62
2021/04/05 00:47:56;;;;;;;8.63;6.10;;;4.50;99.90;;;;;;5086998;28;20788;-62
2021/04/05 00:50:27;;;;;;;11.43;6.73;;;4.30;99.90;;;;;;5087521;28;20309;-62
2021/04/05 00:52:56;;;;;;;13.30;7.10;;;4.40;99.90;;;;;;5094387;28;20293;-62
2021/04/05 00:55:24;;;;;;;11.67;7.07;;;4.40;99.90;;;;;;5095024;28;20200;-63
2021/04/05 00:57:52;;;;;;;11.40;6.33;;;4.40;99.90;;;;;;5095610;28;20288;-63
2021/04/05 01:00:29;;;;;;;11.27;7.13;;;4.40;99.90;;;;;;5088111;28;20196;-63
2021/04/05 01:02:56;;;;;;;10.97;7.03;;;4.40;99.90;;;;;;5094539;28;20894;-63
2021/04/05 01:05:23;;;;;;;12.20;7.10;;;4.40;99.90;;;;;;5094401;28;20238;-62
2021/04/05 01:07:50;;;;;;;10.37;7.20;;;4.40;99.90;;;;;;5095263;28;20232;-62
2021/04/05 01:10:16;;;;;;;12.57;7.43;;;4.40;99.90;;;;;;5094779;28;20687;-64
2021/04/05 01:12:44;;;;;;;10.77;7.30;;;4.50;99.90;;;;;;5095088;28;20677;-63
2021/04/05 01:15:12;;;;;;;11.53;7.50;;;4.50;99.90;;;;;;5095126;28;20200;-62
2021/04/05 01:17:48;;;;;;;11.07;6.60;;;4.50;99.90;;;;;;5095515;28;20215;-62
2021/04/05 01:20:16;;;;;;;10.77;6.70;;;4.40;99.90;;;;;;5095412;28;20286;-62
2021/04/05 01:22:45;;;;;;;10.63;6.63;;;4.40;99.90;;;;;;5095363;28;20363;-62
2021/04/05 01:25:15;;;;;;;11.17;6.60;;;4.40;99.90;;;;;;5094818;28;20617;-62
2021/04/05 01:27:42;;;;;;;11.30;6.83;;;4.40;99.90;;;;;;5094796;28;20282;-63
2021/04/05 01:30:27;;;;;;;10.43;7.10;;;4.40;99.90;;;;;;5089716;28;20232;-63
2021/04/05 01:33:04;;;;;;;11.87;7.07;;;4.30;99.90;;;;;;5087955;28;20215;-64
2021/04/05 01:35:35;;;;;;;11.50;7.73;;;4.40;99.90;;;;;;5094983;28;20215;-62
2021/04/05 01:38:03;;;;;;;10.07;6.77;;;4.40;99.90;;;;;;5089521;28;20210;-63
2021/04/05 01:40:33;;;;;;;11.40;7.03;;;4.40;99.90;;;;;;5074542;28;20280;-62
2021/04/05 01:43:00;;;;;;;12.40;7.80;;;4.40;99.90;;;;;;5074671;28;20209;-62
2021/04/05 01:45:27;;;;;;;11.03;7.17;;;4.40;99.90;;;;;;5074418;28;20283;-63
2021/04/05 01:47:54;;;;;;;10.30;7.13;;;4.40;99.90;;;;;;5074647;28;20287;-62
2021/04/05 01:50:21;;;;;;;11.20;7.20;;;4.40;99.90;;;;;;5074108;28;20583;-63
2021/04/05 01:52:48;;;;;;;11.63;6.97;;;4.40;99.90;;;;;;5074560;28;20290;-63
2021/04/05 01:55:17;;;;;;;16.17;7.60;;;4.30;99.90;;;;;;5074277;28;20207;-63
2021/04/05 01:57:44;;;;;;;12.60;7.27;;;4.30;99.90;;;;;;5073943;28;20627;-63
2021/04/05 02:00:14;;;;;;;11.40;7.10;;;4.30;99.90;;;;;;5073916;28;20203;-63
2021/04/05 02:02:42;;;;;;;11.60;7.00;;;4.30;99.90;;;;;;5073993;28;20201;-65
2021/04/05 02:05:10;;;;;;;13.73;7.53;;;4.30;99.90;;;;;;5074313;28;20289;-62
2021/04/05 02:07:38;;;;;;;12.73;7.07;;;4.30;99.90;;;;;;5074122;28;20311;-63
2021/04/05 02:10:08;;;;;;;10.83;7.40;;;4.30;99.90;;;;;;5073649;28;20212;-63
2021/04/05 02:12:37;;;;;;;13.13;8.00;;;4.30;99.90;;;;;;5074012;28;20189;-63
2021/04/05 02:15:08;;;;;;;14.70;7.63;;;4.20;99.90;;;;;;5073940;28;20546;-62
2021/04/05 02:17:35;;;;;;;13.53;7.53;;;4.30;99.90;;;;;;5073754;28;20283;-63
2021/04/05 02:20:05;;;;;;;13.20;7.57;;;4.30;99.90;;;;;;5073076;28;20200;-54
2021/04/05 02:22:32;;;;;;;12.63;7.57;;;4.40;99.90;;;;;;5073681;28;20214;-56
2021/04/05 02:24:58;;;;;;;13.17;7.53;;;4.50;99.90;;;;;;5073777;28;20303;-55
2021/04/05 02:27:26;;;;;;;12.67;7.53;;;4.50;99.90;;;;;;5073355;28;20320;-58
2021/04/05 02:29:54;;;;;;;14.87;8.17;;;4.50;99.90;;;;;;5073259;28;20220;-55
2021/04/05 02:32:21;;;;;;;14.67;8.70;;;4.50;99.90;;;;;;5073610;28;20207;-57
2021/04/05 02:34:48;;;;;;;15.60;8.80;;;4.30;99.90;;;;;;5073619;28;20302;-57
2021/04/05 02:37:15;;;;;;;16.33;7.93;;;4.40;99.90;;;;;;5073530;28;20231;-57
2021/04/05 02:39:42;;;;;;;15.10;8.37;;;4.30;99.90;;;;;;5073176;28;20296;-57
2021/04/05 02:42:10;;;;;;;13.77;8.27;;;4.30;99.90;;;;;;5073283;28;20287;-59
2021/04/05 02:44:37;;;;;;;14.53;8.20;;;4.40;99.90;;;;;;5073460;28;20210;-55
2021/04/05 02:47:06;;;;;;;15.97;8.33;;;4.30;99.90;;;;;;5073364;28;20266;-58
2021/04/05 02:49:33;;;;;;;13.67;7.77;;;4.40;99.90;;;;;;5073177;28;20259;-58
2021/04/05 02:52:00;;;;;;;15.33;8.73;;;4.40;99.90;;;;;;5073365;28;20229;-55
2021/04/05 02:54:27;;;;;;;18.17;8.80;;;4.40;99.90;;;;;;5072840;28;20631;-57
2021/04/05 02:56:55;;;;;;;14.40;8.77;;;4.40;99.90;;;;;;5073081;28;20227;-56
2021/04/05 02:59:22;;;;;;;14.60;8.80;;;4.40;99.90;;;;;;5073109;28;20295;-57
2021/04/05 03:01:49;;;;;;;14.17;8.53;;;4.40;99.90;;;;;;5072898;28;20211;-58
2021/04/05 03:04:18;;;;;;;19.03;8.77;;;4.40;99.90;;;;;;5073200;28;20231;-58
2021/04/05 03:06:45;;;;;;;17.60;9.17;;;4.40;99.90;;;;;;5072869;28;20597;-58
2021/04/05 03:09:14;;;;;;;19.80;9.40;;;4.40;99.90;;;;;;5072779;28;20227;-55
2021/04/05 03:11:43;;;;;;;15.03;8.87;;;4.40;99.90;;;;;;5072846;28;20288;-58
2021/04/05 03:14:12;;;;;;;14.73;7.93;;;4.40;99.90;;;;;;5072574;28;20554;-57
2021/04/05 03:16:41;;;;;;;16.47;8.10;;;4.40;99.90;;;;;;5072826;28;20228;-57
2021/04/05 03:19:10;;;;;;;20.40;8.50;;;4.40;99.90;;;;;;5072955;28;20295;-57
2021/04/05 03:21:43;;;;;;;13.50;8.47;;;4.40;99.90;;;;;;5072927;28;20233;-57
2021/04/05 03:24:12;;;;;;;14.67;8.07;;;4.40;99.90;;;;;;5072442;28;20272;-56
2021/04/05 03:26:39;;;;;;;13.37;8.30;;;4.40;99.90;;;;;;5072460;28;20231;-57
2021/04/05 03:29:08;;;;;;;15.87;8.60;;;4.40;99.90;;;;;;5072509;28;20201;-56
2021/04/05 03:31:38;;;;;;;16.27;9.37;;;4.30;99.90;;;;;;5071836;28;20197;-59
2021/04/05 03:34:11;;;;;;;15.60;8.40;;;4.30;99.90;;;;;;5072389;28;20655;-57
2021/04/05 03:36:43;;;;;;;13.67;7.57;;;4.30;99.90;;;;;;5072486;28;20187;-56
2021/04/05 03:39:14;;;;;;;15.47;9.03;;;4.30;99.90;;;;;;5072417;28;20471;-59
2021/04/05 03:41:47;;;;;;;16.27;8.70;;;4.20;99.90;;;;;;5072567;28;20276;-56
2021/04/05 03:44:23;;;;;;;14.23;8.47;;;4.20;99.90;;;;;;5072279;28;20195;-55
2021/04/05 03:46:54;;;;;;;17.80;8.93;;;4.20;99.90;;;;;;5072618;28;20583;-57
2021/04/05 03:49:26;;;;;;;15.10;8.97;;;4.20;99.90;;;;;;5072439;28;20306;-56
2021/04/05 03:52:05;;;;;;;17.30;9.30;;;4.20;99.90;;;;;;5072407;28;20655;-57
2021/04/05 03:54:39;;;;;;;16.53;9.53;;;4.20;99.90;;;;;;5072257;28;20192;-56
2021/04/05 03:57:07;;;;;;;22.07;10.17;;;4.20;99.90;;;;;;5072490;28;20273;-57
2021/04/05 03:59:40;;;;;;;17.80;9.53;;;4.20;99.90;;;;;;5072071;28;20592;-55
2021/04/05 04:02:15;;;;;;;17.57;10.50;;;4.30;99.90;;;;;;5072564;28;20272;-56
2021/04/05 04:04:49;;;;;;;18.97;9.97;;;4.20;99.90;;;;;;5072548;28;20191;-57
2021/04/05 04:07:25;;;;;;;18.90;10.40;;;4.20;99.90;;;;;;5072191;28;20188;-56
2021/04/05 04:09:54;;;;;;;17.27;9.93;;;4.30;99.90;;;;;;5072036;28;20211;-57
2021/04/05 04:12:22;;;;;;;23.07;10.40;;;4.30;99.90;;;;;;5071883;28;20247;-57
2021/04/05 04:14:50;;;;;;;16.57;9.60;;;4.40;99.90;;;;;;5071914;28;20690;-57
2021/04/05 04:17:18;;;;;;;15.87;9.90;;;4.30;99.90;;;;;;5084999;28;20203;-57
2021/04/05 04:19:46;;;;;;;19.83;9.87;;;4.40;99.90;;;;;;5092198;28;20652;-57
2021/04/05 04:22:13;;;;;;;18.83;10.03;;;4.40;99.90;;;;;;5091832;28;20201;-58
2021/04/05 04:24:42;;;;;;;19.30;9.87;;;4.40;99.90;;;;;;5092199;28;20285;-57
2021/04/05 04:27:08;;;;;;;20.37;10.40;;;4.40;99.90;;;;;;5091898;28;20313;-58
2021/04/05 04:29:35;;;;;;;18.90;10.63;;;4.40;99.90;;;;;;5091927;28;20797;-58
2021/04/05 04:32:03;;;;;;;20.87;10.57;;;4.40;99.90;;;;;;5092015;28;20202;-57
2021/04/05 04:34:30;;;;;;;16.97;10.27;;;4.40;99.90;;;;;;5092071;28;20196;-57
2021/04/05 04:37:02;;;;;;;16.60;10.03;;;4.50;99.90;;;;;;5091898;28;20286;-57
2021/04/05 04:39:30;;;;;;;18.60;9.83;;;4.40;99.90;;;;;;5092191;28;20212;-56
2021/04/05 04:41:57;;;;;;;18.63;10.30;;;4.40;99.90;;;;;;5093236;28;20243;-55
2021/04/05 04:44:24;;;;;;;19.83;10.00;;;4.50;99.90;;;;;;5098038;28;20620;-52
2021/04/05 04:46:51;;;;;;;21.07;10.43;;;4.40;99.90;;;;;;5097352;28;20203;-56
2021/04/05 04:49:18;;;;;;;17.93;10.27;;;4.50;99.90;;;;;;5097312;28;20204;-59
2021/04/05 04:51:45;;;;;;;18.33;10.57;;;4.60;99.90;;;;;;5095898;28;20243;-57
2021/04/05 04:54:13;;;;;;;20.67;10.27;;;4.70;99.90;;;;;;5095722;28;20207;-59
2021/04/05 04:56:40;;;;;;;19.50;10.67;;;4.70;99.90;;;;;;5095558;28;20235;-58
2021/04/05 04:59:09;;;;;;;20.23;12.57;;;4.80;99.90;;;;;;5095388;28;20197;-59
2021/04/05 05:01:38;;;;;;;20.47;11.43;;;4.80;99.90;;;;;;5095637;28;20298;-57
2021/04/05 05:04:09;;;;;;;18.43;10.73;;;4.90;99.90;;;;;;5095650;28;20307;-56
2021/04/05 05:06:37;;;;;;;20.27;11.50;;;5.00;99.90;;;;;;5095183;28;20278;-58
2021/04/05 05:09:05;;;;;;;21.87;10.73;;;5.10;99.90;;;;;;5095507;28;20206;-56
2021/04/05 05:11:32;;;;;;;16.60;10.37;;;5.00;99.90;;;;;;5094832;28;20222;-57
2021/04/05 05:13:59;;;;;;;18.43;9.20;;;5.00;99.90;;;;;;5095197;28;20295;-57
2021/04/05 05:16:28;;;;;;;16.87;9.83;;;5.10;99.90;;;;;;5094933;28;20668;-56
2021/04/05 05:18:56;;;;;;;20.90;9.90;;;5.10;99.90;;;;;;5095230;28;20225;-57
2021/04/05 05:21:26;;;;;;;17.93;9.60;;;5.10;99.90;;;;;;5094870;28;20620;-56
2021/04/05 05:23:58;;;;;;;17.90;9.23;;;5.10;99.90;;;;;;5095233;28;20268;-58
2021/04/05 05:26:27;;;;;;;16.33;9.43;;;5.20;99.90;;;;;;5094820;28;20281;-59
2021/04/05 05:28:57;;;;;;;18.43;9.37;;;5.30;99.90;;;;;;5094808;28;20204;-58
2021/04/05 05:31:24;;;;;;;14.23;8.63;;;5.40;99.90;;;;;;5095083;28;20309;-59
2021/04/05 05:33:52;;;;;;;16.13;8.83;;;5.30;99.90;;;;;;5094928;28;20231;-56
2021/04/05 05:36:19;;;;;;;16.40;9.50;;;5.40;99.90;;;;;;5094616;28;20310;-58
2021/04/05 05:38:46;;;;;;;17.87;8.67;;;5.50;99.90;;;;;;5094602;28;20294;-56
2021/04/05 05:41:21;;;;;;;18.67;8.13;;;5.50;99.90;;;;;;5094765;28;20195;-58
2021/04/05 05:43:56;;;;;;;14.00;8.27;;;5.50;99.90;;;;;;5094813;28;20194;-60
2021/04/05 05:46:32;;;;;;;15.37;8.40;;;5.60;99.90;;;;;;5094833;28;20186;-58
2021/04/05 05:49:15;;;;;;;12.73;8.03;;;5.60;99.90;;;;;;5094506;28;20940;-58
2021/04/05 05:52:01;;;;;;;14.10;7.77;;;5.70;99.90;;;;;;5094340;28;20204;-60
2021/04/05 05:54:49;;;;;;;12.73;7.93;;;5.80;99.90;;;;;;5093674;28;20887;-58
2021/04/05 05:57:28;;;;;;;14.13;8.33;;;5.80;99.90;;;;;;5094635;28;20273;-57
2021/04/05 06:00:04;;;;;;;15.80;8.53;;;5.90;99.90;;;;;;5094473;28;20209;-57
2021/04/05 06:02:43;;;;;;;17.07;7.57;;;5.90;99.90;;;;;;5094636;28;20190;-56
2021/04/05 06:05:23;;;;;;;16.63;7.83;;;5.80;99.90;;;;;;5094163;28;20222;-58
2021/04/05 06:08:04;;;;;;;15.80;9.00;;;6.00;99.90;;;;;;5094025;28;20264;-58
2021/04/05 06:10:45;;;;;;;12.90;7.80;;;6.00;99.90;;;;;;5093957;28;20208;-57
2021/04/05 06:13:21;;;;;;;11.93;7.40;;;6.10;99.90;;;;;;5094072;28;20272;-57
2021/04/05 06:15:57;;;;;;;12.60;8.47;;;6.20;99.90;;;;;;5094024;28;20195;-58
2021/04/05 06:18:33;;;;;;;13.80;6.67;;;6.20;99.90;;;;;;5094139;28;20189;-59
2021/04/05 06:21:06;;;;;;;13.60;7.60;;;6.20;99.90;;;;;;5093440;28;20611;-58
2021/04/05 06:23:44;;;;;;;14.90;7.30;;;6.30;99.90;;;;;;5094085;28;20217;-56
2021/04/05 06:26:21;;;;;;;12.83;7.93;;;6.40;99.90;;;;;;5093773;28;20329;-58
2021/04/05 06:28:55;;;;;;;17.07;8.13;;;6.40;99.90;;;;;;5093567;28;20855;-56
2021/04/05 06:31:36;;;;;;;12.87;7.37;;;6.40;99.90;;;;;;5093954;28;20613;-57
2021/04/05 06:34:17;;;;;;;13.60;8.33;;;6.50;99.90;;;;;;5093933;28;20183;-59
2021/04/05 06:36:53;;;;;;;14.77;8.20;;;6.60;99.90;;;;;;5093592;28;20190;-59
2021/04/05 06:39:24;;;;;;;12.70;7.47;;;6.70;99.90;;;;;;5093549;28;20687;-57
2021/04/05 06:42:09;;;;;;;15.80;7.93;;;6.70;99.90;;;;;;5093340;28;20623;-58
2021/04/05 06:45:28;;;;;;;17.77;8.00;;;6.70;99.90;;;;;;5093648;28;20557;-58
2021/04/05 06:48:23;;;;;;;14.27;8.47;;;6.90;99.90;;;;;;5092895;28;20669;-58
2021/04/05 06:50:59;;;;;;;13.70;8.73;;;6.90;99.90;;;;;;5092371;28;20881;-56
2021/04/05 06:53:49;;;;;;;15.40;8.87;;;7.00;99.90;;;;;;5092565;28;20243;-58
2021/04/05 06:56:26;;;;;;;15.70;8.73;;;7.10;99.90;;;;;;5092878;28;20281;-58
2021/04/05 06:59:11;;;;;;;12.23;8.27;;;7.10;99.90;;;;;;5093259;28;20210;-58
2021/04/05 07:02:00;;;;;;;15.73;8.33;;;7.20;99.90;;;;;;5093127;28;20572;-58
2021/04/05 07:04:44;;;;;;;13.53;8.30;;;7.30;99.90;;;;;;5092072;28;20916;-57
2021/04/05 07:07:19;;;;;;;12.93;8.83;;;7.30;99.90;;;;;;5090211;28;20283;-58
2021/04/05 07:09:53;;;;;;;16.00;8.63;;;7.40;99.90;;;;;;5089585;28;20654;-57
2021/04/05 07:12:31;;;;;;;13.93;8.17;;;7.50;99.90;;;;;;5091790;28;20274;-57
2021/04/05 07:15:11;;;;;;;17.47;8.77;;;7.60;99.90;;;;;;5092012;28;20232;-57
2021/04/05 07:17:48;;;;;;;13.83;8.13;;;7.60;99.90;;;;;;5092023;28;20286;-56
2021/04/05 07:20:21;;;;;;;15.50;8.83;;;7.60;99.90;;;;;;5090545;28;20184;-58
2021/04/05 07:23:05;;;;;;;16.77;8.67;;;7.60;99.90;;;;;;5092013;28;20198;-57
2021/04/05 07:25:44;;;;;;;13.47;8.30;;;7.60;99.90;;;;;;5091861;28;20190;-59
2021/04/05 07:28:19;;;;;;;16.13;9.13;;;7.60;99.90;;;;;;5092661;28;20190;-56
2021/04/05 07:30:53;;;;;;;16.50;9.23;;;7.60;99.90;;;;;;5092432;28;20207;-59
2021/04/05 07:33:28;;;;;;;16.77;9.07;;;7.60;99.90;;;;;;5092131;28;20206;-57
2021/04/05 07:36:02;;;;;;;14.90;8.97;;;7.70;99.90;;;;;;5091555;28;20186;-59
2021/04/05 07:38:40;;;;;;;15.83;8.93;;;7.70;99.90;;;;;;5089324;28;20749;-58
2021/04/05 07:41:18;;;;;;;15.60;9.33;;;7.70;99.90;;;;;;5089520;28;20278;-59
2021/04/05 07:44:00;;;;;;;14.33;9.10;;;7.80;99.90;;;;;;5088844;28;20182;-58
2021/04/05 07:46:35;;;;;;;18.37;9.30;;;7.80;99.90;;;;;;5089567;28;20294;-58
2021/04/05 07:49:11;;;;;;;15.47;9.07;;;7.90;99.90;;;;;;5091419;28;20557;-57
2021/04/05 07:51:47;;;;;;;16.73;9.53;;;7.90;99.90;;;;;;5091422;28;20286;-56
2021/04/05 07:54:17;;;;;;;15.40;9.30;;;8.00;99.90;;;;;;5090127;28;20718;-59
2021/04/05 07:56:54;;;;;;;15.10;9.17;;;8.10;99.90;;;;;;5088740;28;20286;-57
2021/04/05 07:59:33;;;;;;;14.63;8.57;;;8.20;99.90;;;;;;5091485;28;20188;-59
2021/04/05 08:02:16;;;;;;;16.10;9.57;;;8.20;99.90;;;;;;5091235;28;20540;-56
2021/04/05 08:04:52;;;;;;;18.47;9.80;;;8.10;99.90;;;;;;5092475;28;20269;-57
2021/04/05 08:07:29;;;;;;;17.10;10.57;;;8.10;99.90;;;;;;5092686;28;20558;-57
2021/04/05 08:10:07;;;;;;;16.33;9.93;;;8.20;99.90;;;;;;5092175;28;20183;-58
2021/04/05 08:12:49;;;;;;;21.00;10.33;;;8.20;99.90;;;;;;5092503;28;20532;-58
2021/04/05 08:15:25;;;;;;;18.87;11.10;;;8.20;99.90;;;;;;5092436;28;20271;-57
2021/04/05 08:18:11;;;;;;;17.80;10.00;;;8.20;99.90;;;;;;5094596;28;20288;-56
2021/04/05 08:20:43;;;;;;;18.63;10.33;;;8.30;99.90;;;;;;5095973;28;20737;-58
2021/04/05 08:23:21;;;;;;;18.67;10.23;;;8.40;99.90;;;;;;5096545;28;20203;-59
2021/04/05 08:25:57;;;;;;;16.53;10.20;;;8.40;99.90;;;;;;5096101;28;20211;-58
2021/04/05 08:28:34;;;;;;;17.63;10.40;;;8.50;99.90;;;;;;5096329;28;20280;-58
2021/04/05 08:31:12;;;;;;;15.67;10.50;;;8.50;99.90;;;;;;5096205;28;20207;-59
2021/04/05 08:33:49;;;;;;;17.77;10.77;;;8.60;99.90;;;;;;5091516;28;20665;-56
2021/04/05 08:36:27;;;;;;;17.47;10.83;;;8.60;99.90;;;;;;5084467;28;20215;-57
2021/04/05 08:39:03;;;;;;;20.63;11.47;;;8.60;99.90;;;;;;5075849;28;20195;-59
2021/04/05 08:41:53;;;;;;;17.33;11.17;;;8.70;99.90;;;;;;5083576;28;20220;-58
2021/04/05 08:44:31;;;;;;;20.43;11.70;;;8.60;99.90;;;;;;5086897;28;20195;-56
2021/04/05 08:47:01;;;;;;;19.17;11.33;;;8.60;99.90;;;;;;5078934;28;20231;-59
2021/04/05 08:49:30;;;;;;;25.67;14.40;;;8.50;99.90;;;;;;5081797;28;20612;-58
2021/04/05 08:52:02;;;;;;;18.53;12.30;;;8.40;99.90;;;;;;5075559;28;20241;-57
2021/04/05 08:54:31;;;;;;;21.00;11.80;;;8.30;99.90;;;;;;5081108;28;20287;-57
2021/04/05 08:57:02;;;;;;;21.57;12.30;;;8.20;99.90;;;;;;5090686;28;20211;-58
2021/04/05 08:59:38;;;;;;;18.70;12.50;;;8.10;99.90;;;;;;5095147;28;20681;-55
2021/04/05 09:02:14;;;;;;;19.60;13.33;;;7.90;99.90;;;;;;5095424;28;20703;-60
2021/04/05 09:04:44;;;;;;;23.37;13.40;;;7.80;99.90;;;;;;5098246;28;20207;-60
2021/04/05 09:07:29;;;;;;;22.10;12.80;;;7.70;99.90;;;;;;5100051;28;20278;-60
2021/04/05 09:09:59;;;;;;;20.90;12.93;;;7.70;99.90;;;;;;5097035;28;20218;-59
2021/04/05 09:12:29;;;;;;;27.00;14.87;;;7.70;99.90;;;;;;5095558;28;20457;-57
2021/04/05 09:15:23;;;;;;;24.63;14.43;;;7.70;99.90;;;;;;5095467;28;20264;-56
2021/04/05 09:18:11;;;;;;;25.53;14.43;;;7.60;99.90;;;;;;5095196;28;20278;-56
2021/04/05 09:20:52;;;;;;;22.20;14.37;;;7.60;99.90;;;;;;5095038;28;20291;-56
2021/04/05 09:23:45;;;;;;;26.23;15.47;;;7.60;99.90;;;;;;5095027;28;20293;-57
2021/04/05 09:26:43;;;;;;;19.70;13.00;;;7.50;99.90;;;;;;5074750;28;20249;-55
2021/04/05 09:29:20;;;;;;;21.03;13.20;;;7.50;99.90;;;;;;5092492;28;20203;-59
2021/04/05 09:32:27;;;;;;;23.50;13.80;;;7.40;99.90;;;;;;5093312;28;20289;-56
2021/04/05 09:35:36;;;;;;;22.00;13.60;;;7.30;99.90;;;;;;5094330;28;20721;-56
2021/04/05 09:38:26;;;;;;;23.87;14.30;;;7.30;99.90;;;;;;5092505;28;20670;-58
2021/04/05 09:41:15;;;;;;;19.03;13.03;;;7.20;99.90;;;;;;5095053;28;20687;-57
2021/04/05 09:44:15;;;;;;;21.87;13.30;;;7.20;99.90;;;;;;5094705;28;20274;-56
2021/04/05 09:47:20;;;;;;;21.23;12.83;;;7.20;99.90;;;;;;5071567;28;20246;-56
2021/04/05 09:49:59;;;;;;;22.30;13.17;;;7.20;99.90;;;;;;5094464;28;20182;-58
2021/04/05 09:52:45;;;;;;;21.37;13.07;;;7.10;99.90;;;;;;5087898;28;20657;-56
2021/04/05 09:55:14;;;;;;;21.87;13.70;;;7.00;99.90;;;;;;5074455;28;20195;-57
2021/04/05 09:57:50;;;;;;;22.13;13.23;;;7.00;99.90;;;;;;5074007;28;20683;-54
2021/04/05 10:00:19;;;;;;;21.47;12.87;;;6.90;99.90;;;;;;5074699;28;20460;-58
2021/04/05 10:02:49;;;;;;;21.37;12.23;;;6.90;99.90;;;;;;5078392;28;20214;-58
2021/04/05 10:05:19;;;;;;;18.53;12.23;;;6.90;99.90;;;;;;5074060;28;20216;-56
2021/04/05 10:07:48;;;;;;;18.83;12.07;;;6.90;99.90;;;;;;5073825;28;20201;-56
2021/04/05 10:10:18;;;;;;;18.87;12.17;;;6.90;99.90;;;;;;5077690;28;20219;-58
2021/04/05 10:12:47;;;;;;;19.10;11.77;;;6.80;99.90;;;;;;5093895;28;20297;-58
2021/04/05 10:15:17;;;;;;;17.90;11.87;;;6.80;99.90;;;;;;5094182;28;20199;-58
2021/04/05 10:17:48;;;;;;;22.27;12.93;;;6.80;99.90;;;;;;5094231;28;20284;-55
2021/04/05 10:20:17;;;;;;;23.03;12.07;;;6.90;99.90;;;;;;5093922;28;20642;-57
2021/04/05 10:22:47;;;;;;;21.17;12.07;;;6.90;99.90;;;;;;5094053;28;20294;-57
2021/04/05 10:25:19;;;;;;;18.00;11.57;;;6.80;99.90;;;;;;5093821;28;20226;-55
2021/04/05 10:27:48;;;;;;;17.70;11.67;;;6.70;99.90;;;;;;5088968;28;20253;-57
2021/04/05 10:30:18;;;;;;;17.67;11.40;;;6.70;99.90;;;;;;5081213;28;20205;-56
2021/04/05 10:32:46;;;;;;;17.90;11.07;;;6.70;99.90;;;;;;5084236;28;20291;-55
2021/04/05 10:35:17;;;;;;;22.67;11.83;;;6.60;99.90;;;;;;5089271;28;20235;-59
2021/04/05 10:37:46;;;;;;;19.27;11.20;;;6.60;99.90;;;;;;5086349;28;20198;-55
2021/04/05 10:40:14;;;;;;;3.90;2.57;;;6.50;99.90;;;;;;5076266;28;20642;-55
2021/04/05 10:42:47;;;;;;;1.73;1.53;;;5.80;99.90;;;;;;5093302;28;20302;-57
2021/04/05 10:45:20;;;;;;;1.93;1.30;;;4.80;99.90;;;;;;5092878;28;20888;-58
2021/04/05 10:47:53;;;;;;;1.00;0.90;;;4.20;99.90;;;;;;5090233;28;20573;-57
2021/04/05 10:50:27;;;;;;;1.43;1.17;;;3.80;99.90;;;;;;5093558;28;20297;-58
2021/04/05 10:52:59;;;;;;;1.30;1.07;;;3.60;99.90;;;;;;5093258;28;20225;-54
2021/04/05 10:55:29;;;;;;;1.40;1.13;;;3.40;99.90;;;;;;5093598;28;20240;-57
2021/04/05 10:57:58;;;;;;;1.20;1.00;;;3.10;99.90;;;;;;5093250;28;20218;-58
2021/04/05 11:00:32;;;;;;;1.30;1.20;;;3.00;99.90;;;;;;5093017;28;20208;-55
2021/04/05 11:03:06;;;;;;;1.97;1.43;;;3.00;99.90;;;;;;5093249;28;20246;-59
2021/04/05 11:05:38;;;;;;;1.87;1.50;;;2.90;99.90;;;;;;5093112;28;20198;-56
2021/04/05 11:08:06;;;;;;;2.00;1.60;;;2.90;99.90;;;;;;5093456;28;20576;-58
2021/04/05 11:10:35;;;;;;;1.93;1.73;;;3.00;99.90;;;;;;5092755;28;20209;-56
2021/04/05 11:13:06;;;;;;;2.73;1.60;;;3.20;99.90;;;;;;5092756;28;20207;-57
2021/04/05 11:15:38;;;;;;;2.10;1.90;;;3.20;99.90;;;;;;5092859;28;20205;-59
2021/04/05 11:18:08;;;;;;;1.87;1.60;;;3.20;99.90;;;;;;5084667;28;20192;-57
2021/04/05 11:20:39;;;;;;;1.90;1.77;;;3.30;99.90;;;;;;5081849;28;20286;-55
2021/04/05 11:23:09;;;;;;;3.83;2.10;;;3.20;99.90;;;;;;5073279;28;20226;-57
2021/04/05 11:25:39;;;;;;;2.30;2.10;;;3.30;99.90;;;;;;5086991;28;20203;-58
2021/04/05 11:28:10;;;;;;;3.13;2.20;;;3.30;99.90;;;;;;5092813;28;20223;-57
2021/04/05 11:30:39;;;;;;;2.57;2.20;;;3.40;99.90;;;;;;5085766;28;22163;-58
2021/04/05 11:33:09;;;;;;;3.30;2.17;;;3.50;99.90;;;;;;5078184;28;20204;-57
2021/04/05 11:35:40;;;;;;;2.83;2.33;;;3.60;99.90;;;;;;5072792;28;20291;-58
2021/04/05 11:38:12;;;;;;;3.07;2.37;;;3.70;99.90;;;;;;5072395;28;20666;-58
2021/04/05 11:40:41;;;;;;;2.60;2.40;;;3.70;99.90;;;;;;5079714;28;20201;-57
2021/04/05 11:43:15;;;;;;;2.30;1.93;;;3.70;99.90;;;;;;5085945;28;20654;-59
2021/04/05 11:45:44;;;;;;;5.17;2.97;;;3.80;99.90;;;;;;5079881;28;20615;-56
2021/04/05 11:48:16;;;;;;;4.23;2.70;;;3.90;99.90;;;;;;5079152;28;20211;-59
2021/04/05 11:50:44;;;;;;;2.07;1.70;;;3.90;99.90;;;;;;5072043;28;20270;-59
2021/04/05 11:53:22;;;;;;;2.50;1.80;;;4.00;99.90;;;;;;5071266;28;20205;-58
2021/04/05 11:55:59;;;;;;;2.57;2.00;;;4.10;99.90;;;;;;5072516;28;20188;-59
2021/04/05 11:58:31;;;;;;;3.33;2.13;;;4.20;99.90;;;;;;5072666;28;20214;-58
2021/04/05 12:00:59;;;;;;;2.57;2.00;;;4.30;99.90;;;;;;5073534;28;20202;-57
2021/04/05 12:03:31;;;;;;;1.70;1.60;;;4.50;99.90;;;;;;5083275;28;20302;-59
2021/04/05 12:06:04;;;;;;;2.40;1.83;;;4.70;99.90;;;;;;5091410;28;20192;-58
2021/04/05 12:08:38;;;;;;;3.27;2.00;;;4.80;99.90;;;;;;5092536;28;20526;-59
2021/04/05 12:11:07;;;;;;;1.63;1.43;;;4.90;99.90;;;;;;5092028;28;20232;-57
2021/04/05 12:13:50;;;;;;;2.63;1.53;;;4.80;99.90;;;;;;5092320;28;20221;-59
2021/04/05 12:16:24;;;;;;;2.07;1.40;;;4.80;99.90;;;;;;5091410;28;20252;-56
2021/04/05 12:18:53;;;;;;;1.97;1.60;;;4.90;99.90;;;;;;5091033;28;20288;-58
2021/04/05 12:21:26;;;;;;;1.93;1.30;;;4.90;99.90;;;;;;5092189;28;20217;-56
2021/04/05 12:23:58;;;;;;;1.80;1.50;;;4.90;99.90;;;;;;5092137;28;20275;-56
2021/04/05 12:26:28;;;;;;;1.23;1.03;;;4.90;99.90;;;;;;5090754;28;20401;-55
2021/04/05 12:29:04;;;;;;;1.60;1.50;;;4.90;99.90;;;;;;5091345;28;20617;-55
2021/04/05 12:31:33;;;;;;;1.80;1.37;;;4.90;99.90;;;;;;5092053;28;20237;-55
2021/04/05 12:34:09;;;;;;;1.77;1.40;;;4.90;99.90;;;;;;5091612;28;20204;-59
2021/04/05 12:36:38;;;;;;;1.70;1.30;;;4.80;99.90;;;;;;5092322;28;20192;-56
2021/04/05 12:39:09;;;;;;;1.67;1.57;;;4.80;99.90;;;;;;5092297;28;20216;-56
2021/04/05 12:41:38;;;;;;;1.97;1.37;;;4.90;99.90;;;;;;5092086;28;20190;-57
2021/04/05 12:44:09;;;;;;;1.60;1.50;;;5.10;99.90;;;;;;5091822;28;20281;-57
2021/04/05 12:46:39;;;;;;;1.70;1.40;;;5.30;99.90;;;;;;5085500;28;20195;-55
2021/04/05 12:49:08;;;;;;;1.90;1.53;;;5.50;99.90;;;;;;5075508;28;20281;-57
2021/04/05 12:51:35;;;;;;;1.73;1.40;;;5.50;99.90;;;;;;5091480;28;20287;-57
2021/04/05 12:54:06;;;;;;;1.87;1.30;;;5.40;99.90;;;;;;5089682;28;20301;-52
2021/04/05 12:56:36;;;;;;;1.20;1.00;;;5.00;99.90;;;;;;5090257;28;20193;-57
2021/04/05 12:59:03;;;;;;;1.57;1.43;;;4.70;99.90;;;;;;5091831;28;20567;-57
2021/04/05 13:01:35;;;;;;;2.30;1.30;;;4.40;99.90;;;;;;5091418;28;20249;-56
2021/04/05 13:04:05;;;;;;;1.40;1.10;;;4.30;99.90;;;;;;5093818;28;20191;-57
2021/04/05 13:06:41;;;;;;;0.90;0.90;;;4.10;99.90;;;;;;5094917;28;20635;-58
2021/04/05 13:09:18;;;;;;;0.80;0.80;;;3.90;99.90;;;;;;5095401;28;20186;-55
2021/04/05 13:11:53;;;;;;;1.13;0.80;;;3.80;99.90;;;;;;5094552;28;20750;-57
2021/04/05 13:14:25;;;;;;;3.20;1.10;;;3.80;99.90;;;;;;5094943;28;20283;-55